createdAt,value
2022-10-17T00:00:43.386Z,56.56
2022-10-17T00:01:43.400Z,56.24
2022-10-17T00:02:43.370Z,57.20
2022-10-17T00:03:43.345Z,54.14
2022-10-17T00:04:43.341Z,57.04
2022-10-17T00:05:43.346Z,55.11
2022-10-17T00:06:43.354Z,57.85
2022-10-17T00:07:43.359Z,53.82
2022-10-17T00:08:43.311Z,58.01
2022-10-17T00:09:43.309Z,55.11
2022-10-17T00:10:43.290Z,57.04
2022-10-17T00:11:43.288Z,59.62
2022-10-17T00:12:43.378Z,56.72
2022-10-17T00:13:43.294Z,50.60
2022-10-17T00:14:43.259Z,55.91
2022-10-17T00:15:43.258Z,54.62
2022-10-17T00:16:43.258Z,58.49
2022-10-17T00:17:43.238Z,52.53
2022-10-17T00:18:43.249Z,54.46
2022-10-17T00:19:43.234Z,59.14
2022-10-17T00:20:43.217Z,56.56
2022-10-17T00:21:43.221Z,59.94
2022-10-17T00:22:43.218Z,49.31
2022-10-17T00:23:43.222Z,61.87
2022-10-17T00:24:43.219Z,53.66
2022-10-17T00:25:43.229Z,58.81
2022-10-17T00:26:43.187Z,56.56
2022-10-17T00:27:43.186Z,60.26
2022-10-17T00:28:43.237Z,57.85
2022-10-17T00:29:43.194Z,60.10
2022-10-17T00:30:43.206Z,62.68
2022-10-17T00:31:43.238Z,57.52
2022-10-17T00:32:43.192Z,53.50
2022-10-17T00:33:43.185Z,61.39
2022-10-17T00:34:43.158Z,61.55
2022-10-17T00:35:43.131Z,61.87
2022-10-17T00:36:43.122Z,56.07
2022-10-17T00:37:43.129Z,60.91
2022-10-17T00:38:43.117Z,54.95
2022-10-17T00:39:44.117Z,65.58
2022-10-17T00:40:43.135Z,62.20
2022-10-17T00:41:43.103Z,63.33
2022-10-17T00:42:43.111Z,57.52
2022-10-17T00:43:43.107Z,62.68
2022-10-17T00:44:43.089Z,60.75
2022-10-17T00:45:43.085Z,57.20
2022-10-17T00:46:43.066Z,49.79
2022-10-17T00:47:44.062Z,55.27
2022-10-17T00:48:43.057Z,50.11
2022-10-17T00:49:43.062Z,62.84
2022-10-17T00:50:43.042Z,62.36
2022-10-17T00:51:43.048Z,50.27
2022-10-17T00:52:43.039Z,62.04
2022-10-17T00:53:43.030Z,62.36
2022-10-17T00:54:43.024Z,64.13
2022-10-17T00:55:43.009Z,62.52
2022-10-17T00:56:43.019Z,63.00
2022-10-17T00:57:43.003Z,59.46
2022-10-17T00:58:42.996Z,57.69
2022-10-17T00:59:42.986Z,54.62
2022-10-17T01:00:42.983Z,62.52
2022-10-17T01:01:43.104Z,54.79
2022-10-17T01:02:42.982Z,52.37
2022-10-17T01:03:42.958Z,61.23
2022-10-17T01:04:42.949Z,59.46
2022-10-17T01:05:42.961Z,59.46
2022-10-17T01:06:42.951Z,62.20
2022-10-17T01:07:42.938Z,59.78
2022-10-17T01:08:42.939Z,61.07
2022-10-17T01:09:42.947Z,56.24
2022-10-17T01:10:42.923Z,60.59
2022-10-17T01:11:42.934Z,60.26
2022-10-17T01:12:43.002Z,55.91
2022-10-17T01:13:42.907Z,58.33
2022-10-17T01:14:42.921Z,57.04
2022-10-17T01:15:42.885Z,55.59
2022-10-17T01:16:42.898Z,60.91
2022-10-17T01:17:42.879Z,60.10
2022-10-17T01:18:42.862Z,59.30
2022-10-17T01:19:42.865Z,59.94
2022-10-17T01:20:42.862Z,60.10
2022-10-17T01:21:42.850Z,61.39
2022-10-17T01:22:42.845Z,56.40
2022-10-17T01:23:42.833Z,59.94
2022-10-17T01:24:42.837Z,56.56
2022-10-17T01:25:42.825Z,57.04
2022-10-17T01:26:42.817Z,54.46
2022-10-17T01:27:42.818Z,64.61
2022-10-17T01:29:42.794Z,60.59
2022-10-17T01:30:42.790Z,54.79
2022-10-17T01:31:42.788Z,61.07
2022-10-17T01:32:42.797Z,64.45
2022-10-17T01:33:42.774Z,56.56
2022-10-17T01:34:42.770Z,59.30
2022-10-17T01:35:42.763Z,53.66
2022-10-17T01:36:42.753Z,57.04
2022-10-17T01:37:42.807Z,57.69
2022-10-17T01:38:42.734Z,58.01
2022-10-17T01:39:45.363Z,59.78
2022-10-17T01:40:43.740Z,57.04
2022-10-17T01:41:42.725Z,61.07
2022-10-17T01:42:42.718Z,58.81
2022-10-17T01:43:42.717Z,58.97
2022-10-17T01:44:42.716Z,59.78
2022-10-17T01:45:42.713Z,59.62
2022-10-17T01:46:42.693Z,55.91
2022-10-17T01:47:42.679Z,65.10
2022-10-17T01:48:43.682Z,59.94
2022-10-17T01:49:42.715Z,58.49
2022-10-17T01:50:42.704Z,61.23
2022-10-17T01:51:42.696Z,57.69
2022-10-17T01:52:42.653Z,55.91
2022-10-17T01:53:42.657Z,62.52
2022-10-17T01:54:42.640Z,61.39
2022-10-17T01:55:42.657Z,53.82
2022-10-17T01:56:42.625Z,54.79
2022-10-17T01:57:42.624Z,61.23
2022-10-17T01:58:42.616Z,60.91
2022-10-17T01:59:42.611Z,65.26
2022-10-17T02:00:42.605Z,63.00
2022-10-17T02:01:42.645Z,58.33
2022-10-17T02:02:42.575Z,61.39
2022-10-17T02:03:42.585Z,60.91
2022-10-17T02:04:42.599Z,57.36
2022-10-17T02:05:42.682Z,57.36
2022-10-17T02:06:42.565Z,58.01
2022-10-17T02:07:42.572Z,57.52
2022-10-17T02:08:42.543Z,59.14
2022-10-17T02:09:42.540Z,57.36
2022-10-17T02:10:42.558Z,59.46
2022-10-17T02:11:42.521Z,59.62
2022-10-17T02:12:42.516Z,60.91
2022-10-17T02:13:42.517Z,62.84
2022-10-17T02:14:42.498Z,57.69
2022-10-17T02:15:42.516Z,60.10
2022-10-17T02:16:42.494Z,59.62
2022-10-17T02:17:42.490Z,57.20
2022-10-17T02:18:42.477Z,59.94
2022-10-17T02:19:42.473Z,60.10
2022-10-17T02:20:42.465Z,63.16
2022-10-17T02:21:42.481Z,58.97
2022-10-17T02:22:42.464Z,61.55
2022-10-17T02:23:42.449Z,64.29
2022-10-17T02:24:42.445Z,59.94
2022-10-17T02:25:42.442Z,63.49
2022-10-17T02:26:42.441Z,62.04
2022-10-17T02:27:42.440Z,63.16
2022-10-17T02:28:42.452Z,60.59
2022-10-17T02:29:42.417Z,62.20
2022-10-17T02:30:42.411Z,61.71
2022-10-17T02:31:42.421Z,64.29
2022-10-17T02:32:45.417Z,64.78
2022-10-17T02:33:43.384Z,66.87
2022-10-17T02:34:42.381Z,65.26
2022-10-17T02:35:42.375Z,65.74
2022-10-17T02:36:42.377Z,61.39
2022-10-17T02:37:42.365Z,63.81
2022-10-17T02:38:42.349Z,69.13
2022-10-17T02:39:42.349Z,60.10
2022-10-17T02:40:42.349Z,64.13
2022-10-17T02:41:42.358Z,63.00
2022-10-17T02:42:42.340Z,60.91
2022-10-17T02:43:42.329Z,62.68
2022-10-17T02:44:42.334Z,65.90
2022-10-17T02:45:42.325Z,64.78
2022-10-17T02:46:42.328Z,66.06
2022-10-17T02:47:42.289Z,62.68
2022-10-17T02:48:42.291Z,61.39
2022-10-17T02:49:42.301Z,58.97
2022-10-17T02:50:42.277Z,63.97
2022-10-17T02:51:42.304Z,64.94
2022-10-17T02:52:42.279Z,60.91
2022-10-17T02:53:42.264Z,61.87
2022-10-17T02:54:42.265Z,63.00
2022-10-17T02:55:42.260Z,61.71
2022-10-17T02:56:42.264Z,63.65
2022-10-17T02:57:42.266Z,66.55
2022-10-17T02:58:42.244Z,61.55
2022-10-17T02:59:42.221Z,61.71
2022-10-17T03:00:42.224Z,62.36
2022-10-17T03:01:42.345Z,61.23
2022-10-17T03:02:42.237Z,63.65
2022-10-17T03:03:42.210Z,60.26
2022-10-17T03:04:42.205Z,60.10
2022-10-17T03:05:42.204Z,61.71
2022-10-17T03:06:42.193Z,62.04
2022-10-17T03:07:42.188Z,59.78
2022-10-17T03:08:42.198Z,62.36
2022-10-17T03:09:42.180Z,62.20
2022-10-17T03:10:42.180Z,64.13
2022-10-17T03:11:42.155Z,63.49
2022-10-17T03:12:42.177Z,62.20
2022-10-17T03:13:42.148Z,62.52
2022-10-17T03:14:42.176Z,61.55
2022-10-17T03:15:42.133Z,62.68
2022-10-17T03:16:42.124Z,60.26
2022-10-17T03:17:42.167Z,61.71
2022-10-17T03:18:44.377Z,61.55
2022-10-17T03:19:42.113Z,62.84
2022-10-17T03:20:42.104Z,62.84
2022-10-17T03:21:42.096Z,63.65
2022-10-17T03:22:42.092Z,61.39
2022-10-17T03:23:42.080Z,62.36
2022-10-17T03:24:42.108Z,62.52
2022-10-17T03:25:42.065Z,62.68
2022-10-17T03:26:42.160Z,63.33
2022-10-17T03:27:42.063Z,61.71
2022-10-17T03:28:42.101Z,60.10
2022-10-17T03:29:42.054Z,60.59
2022-10-17T03:30:42.036Z,66.55
2022-10-17T03:31:42.028Z,61.55
2022-10-17T03:32:42.029Z,65.26
2022-10-17T03:33:42.022Z,65.42
2022-10-17T03:34:42.008Z,63.00
2022-10-17T03:35:42.039Z,62.20
2022-10-17T03:36:42.016Z,62.04
2022-10-17T03:37:41.995Z,62.68
2022-10-17T03:38:41.976Z,62.84
2022-10-17T03:39:41.984Z,65.26
2022-10-17T03:40:41.976Z,65.26
2022-10-17T03:41:41.982Z,64.94
2022-10-17T03:42:41.960Z,63.81
2022-10-17T03:43:41.952Z,64.61
2022-10-17T03:44:41.945Z,64.29
2022-10-17T03:45:41.947Z,66.23
2022-10-17T03:46:41.972Z,66.87
2022-10-17T03:47:41.932Z,63.16
2022-10-17T03:48:41.928Z,65.10
2022-10-17T03:49:41.932Z,65.10
2022-10-17T03:50:41.922Z,64.78
2022-10-17T03:51:41.925Z,65.42
2022-10-17T03:52:41.907Z,67.51
2022-10-17T03:53:41.892Z,68.64
2022-10-17T03:54:41.904Z,67.35
2022-10-17T03:55:41.876Z,67.68
2022-10-17T03:56:41.879Z,69.13
2022-10-17T03:57:43.455Z,65.10
2022-10-17T03:58:41.873Z,63.97
2022-10-17T03:59:41.869Z,65.10
2022-10-17T04:00:41.856Z,65.58
2022-10-17T04:01:41.942Z,67.03
2022-10-17T04:02:41.840Z,64.45
2022-10-17T04:03:41.823Z,64.94
2022-10-17T04:04:41.836Z,64.29
2022-10-17T04:05:41.812Z,64.78
2022-10-17T04:06:41.816Z,64.61
2022-10-17T04:07:41.806Z,62.36
2022-10-17T04:08:41.800Z,62.52
2022-10-17T04:09:41.805Z,62.04
2022-10-17T04:10:41.786Z,63.97
2022-10-17T04:11:41.783Z,62.68
2022-10-17T04:12:41.774Z,65.74
2022-10-17T04:13:41.768Z,65.58
2022-10-17T04:14:41.778Z,65.10
2022-10-17T04:15:41.756Z,64.61
2022-10-17T04:16:41.756Z,62.36
2022-10-17T04:17:41.735Z,65.26
2022-10-17T04:18:41.739Z,65.26
2022-10-17T04:19:41.733Z,65.74
2022-10-17T04:20:41.729Z,67.35
2022-10-17T04:21:41.743Z,66.39
2022-10-17T04:22:41.712Z,65.90
2022-10-17T04:23:41.701Z,65.42
2022-10-17T04:24:41.696Z,65.74
2022-10-17T04:25:41.684Z,64.45
2022-10-17T04:26:41.772Z,66.39
2022-10-17T04:27:41.675Z,66.39
2022-10-17T04:28:41.678Z,66.39
2022-10-17T04:29:41.666Z,65.10
2022-10-17T04:30:45.076Z,66.39
2022-10-17T04:31:41.651Z,64.45
2022-10-17T04:32:41.648Z,64.29
2022-10-17T04:33:41.637Z,64.78
2022-10-17T04:34:41.631Z,64.78
2022-10-17T04:35:41.620Z,66.55
2022-10-17T04:36:41.615Z,65.42
2022-10-17T04:37:41.616Z,65.74
2022-10-17T04:38:42.603Z,66.06
2022-10-17T04:39:41.600Z,64.13
2022-10-17T04:40:41.608Z,64.61
2022-10-17T04:41:41.611Z,65.10
2022-10-17T04:42:41.575Z,66.55
2022-10-17T04:43:43.432Z,66.39
2022-10-17T04:44:41.564Z,66.55
2022-10-17T04:45:41.565Z,66.23
2022-10-17T04:46:41.559Z,66.06
2022-10-17T04:47:41.547Z,66.06
2022-10-17T04:48:41.539Z,65.42
2022-10-17T04:50:42.519Z,66.87
2022-10-17T04:51:41.519Z,65.74
2022-10-17T04:52:41.532Z,66.06
2022-10-17T04:53:41.507Z,66.71
2022-10-17T04:54:41.500Z,66.71
2022-10-17T04:55:41.500Z,66.71
2022-10-17T04:56:41.492Z,65.74
2022-10-17T04:57:41.497Z,65.10
2022-10-17T04:58:41.479Z,65.74
2022-10-17T04:59:41.480Z,65.42
2022-10-17T05:00:41.495Z,66.23
2022-10-17T05:01:41.470Z,66.71
2022-10-17T05:02:41.468Z,64.94
2022-10-17T05:03:41.466Z,66.87
2022-10-17T05:04:41.439Z,65.26
2022-10-17T05:05:41.451Z,67.51
2022-10-17T05:06:41.431Z,66.23
2022-10-17T05:07:41.428Z,68.00
2022-10-17T05:08:41.424Z,67.19
2022-10-17T05:09:41.416Z,69.13
2022-10-17T05:10:41.407Z,68.48
2022-10-17T05:11:41.397Z,66.71
2022-10-17T05:12:41.397Z,66.71
2022-10-17T05:13:41.404Z,65.90
2022-10-17T05:14:41.375Z,65.26
2022-10-17T05:15:41.371Z,65.90
2022-10-17T05:16:41.368Z,65.42
2022-10-17T05:17:41.367Z,65.58
2022-10-17T05:18:41.355Z,71.54
2022-10-17T05:19:41.355Z,68.00
2022-10-17T05:20:41.339Z,71.06
2022-10-17T05:21:41.331Z,66.39
2022-10-17T05:22:42.203Z,66.71
2022-10-17T05:23:41.327Z,67.19
2022-10-17T05:24:41.364Z,68.80
2022-10-17T05:25:41.304Z,68.80
2022-10-17T05:26:41.298Z,70.25
2022-10-17T05:27:41.302Z,72.03
2022-10-17T05:28:41.334Z,66.55
2022-10-17T05:29:41.305Z,66.55
2022-10-17T05:30:41.264Z,65.90
2022-10-17T05:31:41.272Z,66.39
2022-10-17T05:32:41.268Z,68.16
2022-10-17T05:33:41.253Z,67.35
2022-10-17T05:34:41.271Z,66.23
2022-10-17T05:35:41.260Z,67.19
2022-10-17T05:36:41.234Z,67.19
2022-10-17T05:37:41.240Z,72.35
2022-10-17T05:38:41.224Z,67.51
2022-10-17T05:39:41.218Z,69.13
2022-10-17T05:40:41.217Z,67.84
2022-10-17T05:41:41.202Z,67.03
2022-10-17T05:42:41.203Z,70.25
2022-10-17T05:43:41.202Z,66.23
2022-10-17T05:44:41.180Z,67.84
2022-10-17T05:45:41.190Z,68.00
2022-10-17T05:46:41.169Z,67.19
2022-10-17T05:47:41.163Z,68.32
2022-10-17T05:48:41.176Z,67.03
2022-10-17T05:49:47.343Z,67.68
2022-10-17T05:50:42.144Z,69.13
2022-10-17T05:51:41.140Z,68.96
2022-10-17T05:52:42.913Z,67.03
2022-10-17T05:53:41.131Z,69.61
2022-10-17T05:54:41.126Z,67.03
2022-10-17T05:55:41.122Z,68.00
2022-10-17T05:56:41.103Z,68.64
2022-10-17T05:57:41.099Z,67.68
2022-10-17T05:59:00.789Z,67.19
2022-10-17T05:59:43.103Z,65.90
2022-10-17T06:00:41.159Z,65.10
2022-10-17T06:01:41.093Z,67.51
2022-10-17T06:02:41.067Z,66.87
2022-10-17T06:03:41.060Z,66.23
2022-10-17T06:04:41.063Z,67.35
2022-10-17T06:05:41.072Z,65.90
2022-10-17T06:06:41.044Z,66.87
2022-10-17T06:07:41.104Z,67.51
2022-10-17T06:08:41.033Z,65.58
2022-10-17T06:09:41.053Z,67.19
2022-10-17T06:10:41.033Z,66.23
2022-10-17T06:11:41.014Z,66.71
2022-10-17T06:12:41.000Z,66.23
2022-10-17T06:13:40.995Z,63.49
2022-10-17T06:14:40.987Z,63.97
2022-10-17T06:15:41.004Z,66.06
2022-10-17T06:16:40.976Z,65.42
2022-10-17T06:17:40.983Z,66.23
2022-10-17T06:18:41.030Z,66.55
2022-10-17T06:19:41.007Z,66.39
2022-10-17T06:20:45.255Z,66.55
2022-10-17T06:21:42.942Z,66.71
2022-10-17T06:22:40.935Z,66.55
2022-10-17T06:23:40.932Z,67.35
2022-10-17T06:24:40.927Z,67.68
2022-10-17T06:25:40.956Z,66.39
2022-10-17T06:26:40.915Z,67.35
2022-10-17T06:27:40.946Z,67.51
2022-10-17T06:28:40.935Z,66.06
2022-10-17T06:29:40.901Z,67.68
2022-10-17T06:30:40.907Z,65.26
2022-10-17T06:31:40.883Z,64.94
2022-10-17T06:32:40.874Z,66.55
2022-10-17T06:33:40.866Z,66.06
2022-10-17T06:34:40.871Z,64.94
2022-10-17T06:35:40.853Z,66.06
2022-10-17T06:36:40.877Z,67.35
2022-10-17T06:37:41.039Z,66.23
2022-10-17T06:38:40.834Z,66.39
2022-10-17T06:39:40.828Z,65.74
2022-10-17T06:40:40.829Z,65.90
2022-10-17T06:41:40.843Z,66.06
2022-10-17T06:42:40.819Z,65.74
2022-10-17T06:43:40.803Z,66.87
2022-10-17T06:44:40.826Z,64.78
2022-10-17T06:45:40.795Z,68.64
2022-10-17T06:46:40.791Z,66.23
2022-10-17T06:47:40.803Z,66.87
2022-10-17T06:48:40.768Z,68.80
2022-10-17T06:49:40.762Z,71.22
2022-10-17T06:50:40.760Z,65.74
2022-10-17T06:51:40.749Z,66.55
2022-10-17T06:52:40.765Z,66.23
2022-10-17T06:53:40.754Z,66.39
2022-10-17T06:54:40.736Z,64.94
2022-10-17T06:55:40.729Z,65.74
2022-10-17T06:56:40.718Z,65.90
2022-10-17T06:57:40.717Z,69.29
2022-10-17T06:58:40.728Z,68.00
2022-10-17T06:59:40.715Z,64.29
2022-10-17T07:00:40.783Z,63.33
2022-10-17T07:01:43.216Z,66.87
2022-10-17T07:02:41.689Z,63.97
2022-10-17T07:03:40.693Z,63.97
2022-10-17T07:04:40.691Z,65.58
2022-10-17T07:05:40.661Z,65.26
2022-10-17T07:06:40.669Z,65.90
2022-10-17T07:07:43.146Z,66.87
2022-10-17T07:08:40.649Z,65.90
2022-10-17T07:09:40.654Z,66.06
2022-10-17T07:10:40.632Z,65.26
2022-10-17T07:11:40.637Z,65.42
2022-10-17T07:12:40.620Z,63.16
2022-10-17T07:13:40.625Z,66.23
2022-10-17T07:14:40.626Z,62.52
2022-10-17T07:15:40.605Z,65.10
2022-10-17T07:16:40.582Z,65.26
2022-10-17T07:17:40.597Z,65.10
2022-10-17T07:18:40.582Z,62.84
2022-10-17T07:19:40.642Z,65.74
2022-10-17T07:20:40.561Z,63.33
2022-10-17T07:21:40.556Z,65.10
2022-10-17T07:22:40.545Z,62.36
2022-10-17T07:23:40.534Z,62.52
2022-10-17T07:24:40.580Z,63.33
2022-10-17T07:25:40.540Z,62.84
2022-10-17T07:26:40.554Z,62.36
2022-10-17T07:27:40.513Z,60.42
2022-10-17T07:28:40.519Z,63.00
2022-10-17T07:29:40.513Z,60.91
2022-10-17T07:30:40.516Z,61.07
2022-10-17T07:31:40.484Z,61.55
2022-10-17T07:32:40.481Z,60.26
2022-10-17T07:33:40.529Z,59.30
2022-10-17T07:34:40.461Z,62.04
2022-10-17T07:35:40.463Z,62.20
2022-10-17T07:36:40.476Z,60.75
2022-10-17T07:37:40.475Z,62.04
2022-10-17T07:38:40.445Z,62.84
2022-10-17T07:39:40.445Z,62.04
2022-10-17T07:40:40.428Z,62.20
2022-10-17T07:41:40.461Z,63.16
2022-10-17T07:43:40.396Z,63.00
2022-10-17T07:44:40.393Z,63.65
2022-10-17T07:45:40.417Z,63.00
2022-10-17T07:46:40.385Z,63.00
2022-10-17T07:47:40.400Z,63.16
2022-10-17T07:48:40.376Z,62.20
2022-10-17T07:49:40.364Z,62.36
2022-10-17T07:50:40.353Z,62.36
2022-10-17T07:51:40.403Z,62.04
2022-10-17T07:52:40.369Z,61.07
2022-10-17T07:53:42.690Z,63.49
2022-10-17T07:54:40.334Z,61.07
2022-10-17T07:55:40.337Z,61.71
2022-10-17T07:56:40.328Z,60.59
2022-10-17T07:57:40.316Z,61.87
2022-10-17T07:58:40.329Z,62.20
2022-10-17T07:59:40.316Z,61.55
2022-10-17T08:00:40.422Z,61.39
2022-10-17T08:01:40.284Z,61.23
2022-10-17T08:02:41.283Z,61.07
2022-10-17T08:03:40.280Z,61.39
2022-10-17T08:04:40.299Z,59.78
2022-10-17T08:05:40.269Z,62.04
2022-10-17T08:06:40.260Z,60.75
2022-10-17T08:07:40.290Z,61.23
2022-10-17T08:08:40.239Z,60.91
2022-10-17T08:09:40.232Z,60.26
2022-10-17T08:10:40.281Z,60.26
2022-10-17T08:11:40.220Z,62.36
2022-10-17T08:12:40.225Z,58.81
2022-10-17T08:13:40.221Z,64.61
2022-10-17T08:14:40.219Z,59.62
2022-10-17T08:15:40.217Z,59.78
2022-10-17T08:16:40.191Z,59.94
2022-10-17T08:17:40.184Z,60.26
2022-10-17T08:18:40.196Z,63.33
2022-10-17T08:19:40.184Z,59.30
2022-10-17T08:20:40.172Z,58.33
2022-10-17T08:21:40.172Z,58.65
2022-10-17T08:22:40.161Z,59.78
2022-10-17T08:23:40.139Z,58.17
2022-10-17T08:24:40.145Z,60.42
2022-10-17T08:25:40.140Z,59.46
2022-10-17T08:26:43.385Z,60.10
2022-10-17T08:27:40.124Z,59.94
2022-10-17T08:28:40.235Z,59.30
2022-10-17T08:29:40.191Z,64.45
2022-10-17T08:30:40.117Z,59.30
2022-10-17T08:31:40.118Z,60.75
2022-10-17T08:32:40.091Z,59.62
2022-10-17T08:33:40.092Z,62.20
2022-10-17T08:34:40.083Z,67.35
2022-10-17T08:35:40.066Z,60.10
2022-10-17T08:36:40.087Z,62.84
2022-10-17T08:37:40.063Z,59.46
2022-10-17T08:38:43.150Z,60.75
2022-10-17T08:39:41.064Z,60.59
2022-10-17T08:40:40.104Z,60.26
2022-10-17T08:41:40.044Z,61.39
2022-10-17T08:42:40.027Z,59.14
2022-10-17T08:43:40.019Z,60.10
2022-10-17T08:44:40.036Z,58.97
2022-10-17T08:45:40.019Z,58.97
2022-10-17T08:46:40.008Z,58.81
2022-10-17T08:47:39.992Z,60.59
2022-10-17T08:48:44.089Z,58.65
2022-10-17T08:49:42.003Z,60.10
2022-10-17T08:50:39.987Z,62.04
2022-10-17T08:51:39.972Z,58.01
2022-10-17T08:52:39.977Z,62.52
2022-10-17T08:53:39.963Z,61.07
2022-10-17T08:54:39.975Z,57.69
2022-10-17T08:55:42.859Z,57.52
2022-10-17T08:56:48.535Z,61.23
2022-10-17T08:57:41.946Z,59.78
2022-10-17T08:58:39.934Z,58.33
2022-10-17T08:59:39.928Z,57.20
2022-10-17T09:00:39.916Z,57.52
2022-10-17T09:01:39.948Z,58.33
2022-10-17T09:02:39.933Z,59.14
2022-10-17T09:03:39.897Z,58.49
2022-10-17T09:04:39.888Z,58.81
2022-10-17T09:05:39.899Z,56.40
2022-10-17T09:06:39.877Z,57.36
2022-10-17T09:07:39.868Z,56.07
2022-10-17T09:08:39.864Z,57.52
2022-10-17T09:09:39.860Z,57.85
2022-10-17T09:10:39.875Z,57.69
2022-10-17T09:11:39.847Z,55.27
2022-10-17T09:12:39.837Z,56.88
2022-10-17T09:13:39.853Z,55.27
2022-10-17T09:14:40.801Z,57.36
2022-10-17T09:15:39.819Z,56.24
2022-10-17T09:16:39.811Z,57.36
2022-10-17T09:17:39.824Z,56.56
2022-10-17T09:18:39.824Z,55.91
2022-10-17T09:19:39.803Z,56.24
2022-10-17T09:20:39.804Z,56.07
2022-10-17T09:21:39.784Z,56.07
2022-10-17T09:22:39.783Z,57.52
2022-10-17T09:23:42.428Z,56.56
2022-10-17T09:24:39.769Z,58.33
2022-10-17T09:25:39.764Z,57.04
2022-10-17T09:26:39.767Z,57.36
2022-10-17T09:27:39.748Z,59.62
2022-10-17T09:28:39.782Z,57.69
2022-10-17T09:29:43.679Z,57.36
2022-10-17T09:30:45.216Z,61.23
2022-10-17T09:31:41.731Z,62.68
2022-10-17T09:32:39.731Z,57.85
2022-10-17T09:33:53.873Z,59.14
2022-10-17T09:34:41.731Z,56.72
2022-10-17T09:35:39.712Z,58.17
2022-10-17T09:36:39.695Z,57.52
2022-10-17T09:37:39.700Z,58.97
2022-10-17T09:38:39.697Z,61.55
2022-10-17T09:39:39.696Z,61.07
2022-10-17T09:40:39.691Z,60.59
2022-10-17T09:41:47.196Z,59.78
2022-10-17T09:42:41.659Z,57.85
2022-10-17T09:43:39.671Z,59.62
2022-10-17T09:44:39.663Z,58.33
2022-10-17T09:45:39.650Z,59.14
2022-10-17T09:46:39.647Z,58.49
2022-10-17T09:47:39.637Z,57.36
2022-10-17T09:48:39.631Z,60.42
2022-10-17T09:49:39.644Z,57.04
2022-10-17T09:50:39.635Z,58.65
2022-10-17T09:51:39.616Z,61.39
2022-10-17T09:52:39.616Z,59.46
2022-10-17T09:53:39.603Z,58.97
2022-10-17T09:54:39.592Z,58.17
2022-10-17T09:55:39.616Z,62.04
2022-10-17T09:56:39.587Z,62.04
2022-10-17T09:57:39.579Z,59.94
2022-10-17T09:58:39.571Z,62.36
2022-10-17T09:59:39.572Z,58.97
2022-10-17T10:00:39.611Z,60.26
2022-10-17T10:01:39.572Z,65.26
2022-10-17T10:02:39.551Z,61.71
2022-10-17T10:03:39.536Z,60.91
2022-10-17T10:04:53.083Z,58.49
2022-10-17T10:05:41.533Z,61.23
2022-10-17T10:06:39.528Z,61.07
2022-10-17T10:07:39.534Z,62.52
2022-10-17T10:08:39.532Z,60.59
2022-10-17T10:09:40.261Z,59.62
2022-10-17T10:10:39.509Z,62.68
2022-10-17T10:11:39.514Z,60.75
2022-10-17T10:12:40.298Z,61.23
2022-10-17T10:13:39.508Z,60.59
2022-10-17T10:14:39.487Z,60.10
2022-10-17T10:15:39.476Z,60.42
2022-10-17T10:16:39.475Z,60.59
2022-10-17T10:17:39.468Z,59.62
2022-10-17T10:18:39.483Z,58.97
2022-10-17T10:19:39.475Z,59.78
2022-10-17T10:20:39.529Z,61.71
2022-10-17T10:21:39.447Z,60.59
2022-10-17T10:22:39.444Z,62.20
2022-10-17T10:23:39.463Z,61.23
2022-10-17T10:24:39.427Z,60.10
2022-10-17T10:25:39.454Z,62.20
2022-10-17T10:26:39.421Z,61.55
2022-10-17T10:27:39.430Z,62.68
2022-10-17T10:28:39.442Z,61.39
2022-10-17T10:29:39.399Z,62.52
2022-10-17T10:30:40.105Z,62.04
2022-10-17T10:31:39.370Z,62.84
2022-10-17T10:32:39.381Z,64.78
2022-10-17T10:33:41.581Z,61.87
2022-10-17T10:34:40.370Z,62.04
2022-10-17T10:35:39.362Z,63.97
2022-10-17T10:36:39.362Z,64.45
2022-10-17T10:37:39.343Z,63.33
2022-10-17T10:38:39.346Z,61.87
2022-10-17T10:39:40.389Z,62.84
2022-10-17T10:40:39.332Z,62.52
2022-10-17T10:41:39.336Z,61.87
2022-10-17T10:42:39.327Z,64.29
2022-10-17T10:43:39.311Z,61.07
2022-10-17T10:44:39.335Z,62.36
2022-10-17T10:45:48.552Z,65.26
2022-10-17T10:46:41.289Z,61.39
2022-10-17T10:47:39.292Z,65.42
2022-10-17T10:48:39.280Z,61.55
2022-10-17T10:49:39.291Z,62.04
2022-10-17T10:50:44.400Z,62.04
2022-10-17T10:51:41.269Z,63.97
2022-10-17T10:52:39.257Z,60.10
2022-10-17T10:53:39.251Z,61.55
2022-10-17T10:55:40.258Z,61.55
2022-10-17T10:56:39.239Z,61.39
2022-10-17T10:57:39.236Z,62.04
2022-10-17T10:58:41.851Z,62.04
2022-10-17T10:59:39.219Z,63.81
2022-10-17T11:00:39.335Z,62.68
2022-10-17T11:01:39.209Z,61.23
2022-10-17T11:02:39.204Z,63.00
2022-10-17T11:04:39.219Z,60.91
2022-10-17T11:05:39.188Z,63.16
2022-10-17T11:06:39.164Z,60.59
2022-10-17T11:07:39.170Z,63.16
2022-10-17T11:08:39.158Z,60.42
2022-10-17T11:09:39.160Z,62.52
2022-10-17T11:10:39.158Z,61.71
2022-10-17T11:11:39.189Z,63.81
2022-10-17T11:12:39.203Z,64.13
2022-10-17T11:13:39.147Z,61.55
2022-10-17T11:14:39.123Z,60.42
2022-10-17T11:15:39.127Z,62.04
2022-10-17T11:16:39.139Z,61.07
2022-10-17T11:17:39.102Z,62.36
2022-10-17T11:18:39.102Z,64.78
2022-10-17T11:19:39.098Z,62.20
2022-10-17T11:20:39.094Z,62.52
2022-10-17T11:21:39.090Z,62.04
2022-10-17T11:22:39.555Z,63.00
2022-10-17T11:23:39.078Z,62.36
2022-10-17T11:24:39.082Z,63.65
2022-10-17T11:25:39.072Z,62.52
2022-10-17T11:26:39.062Z,66.06
2022-10-17T11:27:39.073Z,63.65
2022-10-17T11:28:39.099Z,61.55
2022-10-17T11:29:39.041Z,64.45
2022-10-17T11:30:39.099Z,61.23
2022-10-17T11:31:39.151Z,60.75
2022-10-17T11:32:39.048Z,61.71
2022-10-17T11:33:39.028Z,61.23
2022-10-17T11:34:39.023Z,60.26
2022-10-17T11:35:39.038Z,61.23
2022-10-17T11:36:39.006Z,62.20
2022-10-17T11:37:40.820Z,61.07
2022-10-17T11:38:38.988Z,62.04
2022-10-17T11:39:39.044Z,62.36
2022-10-17T11:40:38.986Z,62.52
2022-10-17T11:41:38.970Z,60.59
2022-10-17T11:42:39.005Z,61.23
2022-10-17T11:43:38.964Z,65.90
2022-10-17T11:44:38.945Z,63.97
2022-10-17T11:45:38.960Z,64.45
2022-10-17T11:46:38.950Z,64.29
2022-10-17T11:47:38.926Z,68.00
2022-10-17T11:48:38.938Z,63.81
2022-10-17T11:49:41.020Z,64.94
2022-10-17T11:52:55.970Z,62.84
2022-10-17T11:53:40.896Z,61.55
2022-10-17T11:54:38.899Z,60.42
2022-10-17T11:55:38.882Z,62.04
2022-10-17T11:56:42.670Z,62.04
2022-10-17T11:57:39.879Z,62.36
2022-10-17T11:58:38.878Z,63.33
2022-10-17T11:59:38.858Z,62.04
2022-10-17T12:00:40.841Z,61.55
2022-10-17T12:01:38.846Z,62.84
2022-10-17T12:02:39.220Z,64.61
2022-10-17T12:03:38.850Z,63.65
2022-10-17T12:04:39.338Z,65.26
2022-10-17T12:05:38.822Z,66.71
2022-10-17T12:06:38.818Z,63.65
2022-10-17T12:07:38.866Z,63.16
2022-10-17T12:08:38.845Z,63.81
2022-10-17T12:09:38.802Z,62.84
2022-10-17T12:10:38.870Z,63.00
2022-10-17T12:11:38.794Z,61.39
2022-10-17T12:12:38.781Z,62.36
2022-10-17T12:13:39.783Z,63.00
2022-10-17T12:14:38.782Z,64.94
2022-10-17T12:15:38.789Z,65.58
2022-10-17T12:16:38.761Z,65.42
2022-10-17T12:17:38.749Z,63.97
2022-10-17T12:18:38.746Z,66.23
2022-10-17T12:19:38.763Z,67.03
2022-10-17T12:20:38.748Z,67.68
2022-10-17T12:21:42.729Z,62.04
2022-10-17T12:22:39.712Z,64.61
2022-10-17T12:23:38.706Z,62.36
2022-10-17T12:24:38.768Z,67.51
2022-10-17T12:25:38.717Z,66.06
2022-10-17T12:26:38.689Z,64.45
2022-10-17T12:27:38.665Z,67.03
2022-10-17T12:28:39.919Z,64.29
2022-10-17T12:29:38.670Z,63.65
2022-10-17T12:30:38.661Z,64.13
2022-10-17T12:31:38.647Z,63.00
2022-10-17T12:33:00.308Z,62.04
2022-10-17T12:33:40.654Z,62.04
2022-10-17T12:34:38.658Z,62.04
2022-10-17T12:35:38.719Z,62.52
2022-10-17T12:36:38.619Z,62.52
2022-10-17T12:37:38.623Z,63.33
2022-10-17T12:38:38.618Z,63.97
2022-10-17T12:39:38.598Z,65.10
2022-10-17T12:40:38.591Z,62.36
2022-10-17T12:41:38.612Z,63.00
2022-10-17T12:42:38.604Z,62.04
2022-10-17T12:43:42.673Z,62.04
2022-10-17T12:44:40.563Z,63.00
2022-10-17T12:45:38.563Z,63.00
2022-10-17T12:46:38.563Z,62.84
2022-10-17T12:47:38.547Z,62.68
2022-10-17T12:48:38.551Z,64.78
2022-10-17T12:49:38.559Z,62.84
2022-10-17T12:50:38.527Z,63.65
2022-10-17T12:51:38.528Z,62.68
2022-10-17T12:52:38.515Z,64.45
2022-10-17T12:53:38.511Z,62.20
2022-10-17T12:54:47.216Z,62.68
2022-10-17T12:55:39.495Z,62.52
2022-10-17T12:56:38.487Z,61.07
2022-10-17T12:57:38.516Z,62.20
2022-10-17T12:58:39.158Z,60.91
2022-10-17T12:59:38.463Z,63.00